sensor_id;sensor_type;location;lat;lon;timestamp;temperature;humidity
25877;DHT22;13692;47.480;19.216;2023-09-18T00:00:09;19.20;99.90
25877;DHT22;13692;47.480;19.216;2023-09-18T00:02:39;19.10;99.90
25877;DHT22;13692;47.480;19.216;2023-09-18T00:05:06;19.00;99.90
25877;DHT22;13692;47.480;19.216;2023-09-18T00:07:33;19.00;99.90
25877;DHT22;13692;47.480;19.216;2023-09-18T00:10:00;19.00;99.90
25877;DHT22;13692;47.480;19.216;2023-09-18T00:12:27;19.00;99.90
25877;DHT22;13692;47.480;19.216;2023-09-18T00:14:54;18.90;99.90
25877;DHT22;13692;47.480;19.216;2023-09-18T00:17:21;18.80;99.90
25877;DHT22;13692;47.480;19.216;2023-09-18T00:19:50;18.80;99.90
25877;DHT22;13692;47.480;19.216;2023-09-18T00:22:18;18.70;99.90
25877;DHT22;13692;47.480;19.216;2023-09-18T00:24:45;18.70;99.90
25877;DHT22;13692;47.480;19.216;2023-09-18T00:27:13;18.70;99.90
25877;DHT22;13692;47.480;19.216;2023-09-18T00:29:40;18.70;99.90
25877;DHT22;13692;47.480;19.216;2023-09-18T00:32:07;18.60;99.90
25877;DHT22;13692;47.480;19.216;2023-09-18T00:34:34;18.50;99.90
25877;DHT22;13692;47.480;19.216;2023-09-18T00:37:01;18.50;99.90
25877;DHT22;13692;47.480;19.216;2023-09-18T00:39:31;18.40;99.90
25877;DHT22;13692;47.480;19.216;2023-09-18T00:41:58;18.40;99.90
25877;DHT22;13692;47.480;19.216;2023-09-18T00:44:25;18.40;99.90
25877;DHT22;13692;47.480;19.216;2023-09-18T00:46:53;18.30;99.90
25877;DHT22;13692;47.480;19.216;2023-09-18T00:49:22;18.30;99.90
25877;DHT22;13692;47.480;19.216;2023-09-18T00:51:51;18.30;99.90
25877;DHT22;13692;47.480;19.216;2023-09-18T00:54:19;18.20;99.90
25877;DHT22;13692;47.480;19.216;2023-09-18T00:56:46;18.20;99.90
25877;DHT22;13692;47.480;19.216;2023-09-18T00:59:15;18.10;99.90
25877;DHT22;13692;47.480;19.216;2023-09-18T01:01:42;18.10;99.90
25877;DHT22;13692;47.480;19.216;2023-09-18T01:04:11;18.10;99.90
25877;DHT22;13692;47.480;19.216;2023-09-18T01:06:39;18.00;99.90
25877;DHT22;13692;47.480;19.216;2023-09-18T01:09:07;18.00;99.90
25877;DHT22;13692;47.480;19.216;2023-09-18T01:11:50;18.00;99.90
25877;DHT22;13692;47.480;19.216;2023-09-18T01:17:26;18.10;99.90
25877;DHT22;13692;47.480;19.216;2023-09-18T01:19:53;18.00;99.90
25877;DHT22;13692;47.480;19.216;2023-09-18T01:22:20;18.00;99.90
25877;DHT22;13692;47.480;19.216;2023-09-18T01:24:49;17.90;99.90
25877;DHT22;13692;47.480;19.216;2023-09-18T01:27:17;17.90;99.90
25877;DHT22;13692;47.480;19.216;2023-09-18T01:29:45;17.90;99.90
25877;DHT22;13692;47.480;19.216;2023-09-18T01:32:13;17.90;99.90
25877;DHT22;13692;47.480;19.216;2023-09-18T01:34:52;17.90;99.90
25877;DHT22;13692;47.480;19.216;2023-09-18T01:37:22;17.90;99.90
25877;DHT22;13692;47.480;19.216;2023-09-18T01:39:51;17.80;99.90
25877;DHT22;13692;47.480;19.216;2023-09-18T01:42:19;17.80;99.90
25877;DHT22;13692;47.480;19.216;2023-09-18T01:44:47;17.80;99.90
25877;DHT22;13692;47.480;19.216;2023-09-18T01:47:17;17.80;99.90
25877;DHT22;13692;47.480;19.216;2023-09-18T01:49:45;17.70;99.90
25877;DHT22;13692;47.480;19.216;2023-09-18T01:52:13;17.80;99.90
25877;DHT22;13692;47.480;19.216;2023-09-18T01:54:40;17.70;99.90
25877;DHT22;13692;47.480;19.216;2023-09-18T01:57:07;17.70;99.90
25877;DHT22;13692;47.480;19.216;2023-09-18T01:59:35;17.70;99.90
25877;DHT22;13692;47.480;19.216;2023-09-18T02:02:04;17.70;99.90
25877;DHT22;13692;47.480;19.216;2023-09-18T02:04:34;17.70;99.90
25877;DHT22;13692;47.480;19.216;2023-09-18T02:07:21;17.70;99.90
25877;DHT22;13692;47.480;19.216;2023-09-18T02:09:48;17.70;99.90
25877;DHT22;13692;47.480;19.216;2023-09-18T02:12:18;17.70;99.90
25877;DHT22;13692;47.480;19.216;2023-09-18T02:14:45;17.60;99.90
25877;DHT22;13692;47.480;19.216;2023-09-18T02:17:12;17.60;99.90
25877;DHT22;13692;47.480;19.216;2023-09-18T02:19:39;17.60;99.90
25877;DHT22;13692;47.480;19.216;2023-09-18T02:22:06;17.70;99.90
25877;DHT22;13692;47.480;19.216;2023-09-18T02:24:33;17.70;99.90
25877;DHT22;13692;47.480;19.216;2023-09-18T02:27:03;17.80;99.90
25877;DHT22;13692;47.480;19.216;2023-09-18T02:29:30;17.80;99.90
25877;DHT22;13692;47.480;19.216;2023-09-18T02:31:58;17.80;99.90
25877;DHT22;13692;47.480;19.216;2023-09-18T02:34:25;17.90;99.90
25877;DHT22;13692;47.480;19.216;2023-09-18T02:36:53;17.90;99.90
25877;DHT22;13692;47.480;19.216;2023-09-18T02:39:20;18.00;99.90
25877;DHT22;13692;47.480;19.216;2023-09-18T02:41:47;18.00;99.90
25877;DHT22;13692;47.480;19.216;2023-09-18T02:44:14;18.10;99.90
25877;DHT22;13692;47.480;19.216;2023-09-18T02:46:42;18.10;99.90
25877;DHT22;13692;47.480;19.216;2023-09-18T02:49:10;18.20;99.90
25877;DHT22;13692;47.480;19.216;2023-09-18T02:51:37;18.20;99.90
25877;DHT22;13692;47.480;19.216;2023-09-18T02:54:04;18.30;99.90
25877;DHT22;13692;47.480;19.216;2023-09-18T02:56:31;18.20;99.90
25877;DHT22;13692;47.480;19.216;2023-09-18T02:58:58;18.30;99.90
25877;DHT22;13692;47.480;19.216;2023-09-18T03:01:25;18.30;99.90
25877;DHT22;13692;47.480;19.216;2023-09-18T03:03:52;18.30;99.90
25877;DHT22;13692;47.480;19.216;2023-09-18T03:06:20;18.40;99.90
25877;DHT22;13692;47.480;19.216;2023-09-18T03:08:47;18.40;99.90
25877;DHT22;13692;47.480;19.216;2023-09-18T03:11:14;18.40;99.90
25877;DHT22;13692;47.480;19.216;2023-09-18T03:13:43;18.40;99.90
25877;DHT22;13692;47.480;19.216;2023-09-18T03:16:12;18.40;99.90
25877;DHT22;13692;47.480;19.216;2023-09-18T03:18:39;18.40;99.90
25877;DHT22;13692;47.480;19.216;2023-09-18T03:21:06;18.50;99.90
25877;DHT22;13692;47.480;19.216;2023-09-18T03:23:35;18.50;99.90
25877;DHT22;13692;47.480;19.216;2023-09-18T03:26:03;18.50;99.90
25877;DHT22;13692;47.480;19.216;2023-09-18T03:28:32;18.50;99.90
25877;DHT22;13692;47.480;19.216;2023-09-18T03:30:59;18.50;99.90
25877;DHT22;13692;47.480;19.216;2023-09-18T03:33:26;18.50;99.90
25877;DHT22;13692;47.480;19.216;2023-09-18T03:35:54;18.40;99.90
25877;DHT22;13692;47.480;19.216;2023-09-18T03:38:21;18.40;99.90
25877;DHT22;13692;47.480;19.216;2023-09-18T03:40:49;18.30;99.90
25877;DHT22;13692;47.480;19.216;2023-09-18T03:43:16;18.40;99.90
25877;DHT22;13692;47.480;19.216;2023-09-18T03:45:43;18.40;99.90
25877;DHT22;13692;47.480;19.216;2023-09-18T03:48:11;18.40;99.90
25877;DHT22;13692;47.480;19.216;2023-09-18T03:50:38;18.30;99.90
25877;DHT22;13692;47.480;19.216;2023-09-18T03:53:07;18.30;99.90
25877;DHT22;13692;47.480;19.216;2023-09-18T03:55:34;18.30;99.90
25877;DHT22;13692;47.480;19.216;2023-09-18T03:58:01;18.40;99.90
25877;DHT22;13692;47.480;19.216;2023-09-18T04:00:28;18.40;99.90
25877;DHT22;13692;47.480;19.216;2023-09-18T04:02:55;18.30;99.90
25877;DHT22;13692;47.480;19.216;2023-09-18T04:05:22;18.30;99.90
25877;DHT22;13692;47.480;19.216;2023-09-18T04:07:49;18.30;99.90
25877;DHT22;13692;47.480;19.216;2023-09-18T04:10:16;18.30;99.90
25877;DHT22;13692;47.480;19.216;2023-09-18T04:12:51;18.30;99.90
25877;DHT22;13692;47.480;19.216;2023-09-18T04:15:19;18.20;99.90
25877;DHT22;13692;47.480;19.216;2023-09-18T04:17:47;18.20;99.90
25877;DHT22;13692;47.480;19.216;2023-09-18T04:20:15;18.20;99.90
25877;DHT22;13692;47.480;19.216;2023-09-18T04:22:44;18.20;99.90
25877;DHT22;13692;47.480;19.216;2023-09-18T04:25:12;18.20;99.90
25877;DHT22;13692;47.480;19.216;2023-09-18T04:27:40;18.10;99.90
25877;DHT22;13692;47.480;19.216;2023-09-18T04:30:08;18.20;99.90
25877;DHT22;13692;47.480;19.216;2023-09-18T04:32:38;18.10;99.90
25877;DHT22;13692;47.480;19.216;2023-09-18T04:35:05;18.10;99.90
25877;DHT22;13692;47.480;19.216;2023-09-18T04:37:37;18.10;99.90
25877;DHT22;13692;47.480;19.216;2023-09-18T04:40:08;18.10;99.90
25877;DHT22;13692;47.480;19.216;2023-09-18T04:42:39;18.00;99.90
25877;DHT22;13692;47.480;19.216;2023-09-18T04:45:10;18.10;99.90
25877;DHT22;13692;47.480;19.216;2023-09-18T04:47:37;18.00;99.90
25877;DHT22;13692;47.480;19.216;2023-09-18T04:50:04;18.10;99.90
25877;DHT22;13692;47.480;19.216;2023-09-18T04:52:37;18.10;99.90
25877;DHT22;13692;47.480;19.216;2023-09-18T04:55:04;18.10;99.90
25877;DHT22;13692;47.480;19.216;2023-09-18T04:57:33;18.20;99.90
25877;DHT22;13692;47.480;19.216;2023-09-18T05:00:01;18.10;99.90
25877;DHT22;13692;47.480;19.216;2023-09-18T05:02:43;18.10;99.90
25877;DHT22;13692;47.480;19.216;2023-09-18T05:05:10;18.30;99.90
25877;DHT22;13692;47.480;19.216;2023-09-18T05:07:38;18.50;99.90
25877;DHT22;13692;47.480;19.216;2023-09-18T05:10:05;18.60;99.90
25877;DHT22;13692;47.480;19.216;2023-09-18T05:12:33;18.70;99.90
25877;DHT22;13692;47.480;19.216;2023-09-18T05:14:59;18.80;99.90
25877;DHT22;13692;47.480;19.216;2023-09-18T05:17:47;19.00;99.90
25877;DHT22;13692;47.480;19.216;2023-09-18T05:20:16;19.30;99.90
25877;DHT22;13692;47.480;19.216;2023-09-18T05:22:44;19.50;99.90
25877;DHT22;13692;47.480;19.216;2023-09-18T05:25:12;19.70;99.90
25877;DHT22;13692;47.480;19.216;2023-09-18T05:27:41;19.90;99.90
25877;DHT22;13692;47.480;19.216;2023-09-18T05:30:13;20.20;99.90
25877;DHT22;13692;47.480;19.216;2023-09-18T05:32:42;20.50;99.90
25877;DHT22;13692;47.480;19.216;2023-09-18T05:35:11;20.70;99.90
25877;DHT22;13692;47.480;19.216;2023-09-18T05:37:41;21.00;99.90
25877;DHT22;13692;47.480;19.216;2023-09-18T05:40:10;21.20;99.90
25877;DHT22;13692;47.480;19.216;2023-09-18T05:42:38;21.30;99.90
25877;DHT22;13692;47.480;19.216;2023-09-18T05:45:06;21.40;99.90
25877;DHT22;13692;47.480;19.216;2023-09-18T05:47:33;21.50;99.90
25877;DHT22;13692;47.480;19.216;2023-09-18T05:50:02;21.60;99.90
25877;DHT22;13692;47.480;19.216;2023-09-18T05:52:34;21.80;99.90
25877;DHT22;13692;47.480;19.216;2023-09-18T05:55:02;21.90;99.90
25877;DHT22;13692;47.480;19.216;2023-09-18T05:57:31;22.20;99.90
25877;DHT22;13692;47.480;19.216;2023-09-18T05:59:58;22.50;99.90
25877;DHT22;13692;47.480;19.216;2023-09-18T06:02:25;22.60;99.90
25877;DHT22;13692;47.480;19.216;2023-09-18T06:04:57;22.60;99.90
25877;DHT22;13692;47.480;19.216;2023-09-18T06:07:24;22.70;99.90
25877;DHT22;13692;47.480;19.216;2023-09-18T06:09:52;23.00;99.90
25877;DHT22;13692;47.480;19.216;2023-09-18T06:12:19;23.30;99.90
25877;DHT22;13692;47.480;19.216;2023-09-18T06:14:48;23.30;99.90
25877;DHT22;13692;47.480;19.216;2023-09-18T06:17:15;23.20;99.90
25877;DHT22;13692;47.480;19.216;2023-09-18T06:19:43;23.40;99.90
25877;DHT22;13692;47.480;19.216;2023-09-18T06:22:10;23.60;99.90
25877;DHT22;13692;47.480;19.216;2023-09-18T06:24:37;23.80;99.90
25877;DHT22;13692;47.480;19.216;2023-09-18T06:27:05;23.90;99.90
25877;DHT22;13692;47.480;19.216;2023-09-18T06:29:33;23.80;99.90
25877;DHT22;13692;47.480;19.216;2023-09-18T06:32:00;23.90;99.90
25877;DHT22;13692;47.480;19.216;2023-09-18T06:34:27;24.20;99.90
25877;DHT22;13692;47.480;19.216;2023-09-18T06:36:57;24.20;99.90
25877;DHT22;13692;47.480;19.216;2023-09-18T06:39:24;24.30;99.90
25877;DHT22;13692;47.480;19.216;2023-09-18T06:41:52;24.40;99.90
25877;DHT22;13692;47.480;19.216;2023-09-18T06:44:19;24.40;99.90
25877;DHT22;13692;47.480;19.216;2023-09-18T06:46:48;24.40;99.90
25877;DHT22;13692;47.480;19.216;2023-09-18T06:49:15;24.70;99.90
25877;DHT22;13692;47.480;19.216;2023-09-18T06:51:42;24.90;99.90
25877;DHT22;13692;47.480;19.216;2023-09-18T06:54:10;24.80;99.90
25877;DHT22;13692;47.480;19.216;2023-09-18T06:56:37;24.90;99.90
25877;DHT22;13692;47.480;19.216;2023-09-18T06:59:04;25.10;99.90
25877;DHT22;13692;47.480;19.216;2023-09-18T07:01:31;25.30;99.90
25877;DHT22;13692;47.480;19.216;2023-09-18T07:03:59;25.50;99.90
25877;DHT22;13692;47.480;19.216;2023-09-18T07:06:27;25.60;99.90
25877;DHT22;13692;47.480;19.216;2023-09-18T07:08:54;25.90;99.90
25877;DHT22;13692;47.480;19.216;2023-09-18T07:11:22;25.80;99.90
25877;DHT22;13692;47.480;19.216;2023-09-18T07:13:51;25.60;99.90
25877;DHT22;13692;47.480;19.216;2023-09-18T07:16:18;25.50;99.90
25877;DHT22;13692;47.480;19.216;2023-09-18T07:18:46;25.70;99.90
25877;DHT22;13692;47.480;19.216;2023-09-18T07:21:13;25.80;99.90
25877;DHT22;13692;47.480;19.216;2023-09-18T07:23:40;25.80;99.90
25877;DHT22;13692;47.480;19.216;2023-09-18T07:26:07;26.00;99.90
25877;DHT22;13692;47.480;19.216;2023-09-18T07:28:35;26.10;99.90
25877;DHT22;13692;47.480;19.216;2023-09-18T07:31:06;26.00;99.90
25877;DHT22;13692;47.480;19.216;2023-09-18T07:33:33;25.80;99.90
25877;DHT22;13692;47.480;19.216;2023-09-18T07:36:01;25.80;99.90
25877;DHT22;13692;47.480;19.216;2023-09-18T07:38:28;26.00;99.90
25877;DHT22;13692;47.480;19.216;2023-09-18T07:40:55;26.20;99.90
25877;DHT22;13692;47.480;19.216;2023-09-18T07:43:24;26.50;99.90
25877;DHT22;13692;47.480;19.216;2023-09-18T07:45:53;26.80;99.90
25877;DHT22;13692;47.480;19.216;2023-09-18T07:48:22;27.30;99.90
25877;DHT22;13692;47.480;19.216;2023-09-18T07:50:49;27.20;99.90
25877;DHT22;13692;47.480;19.216;2023-09-18T07:53:18;27.10;99.90
25877;DHT22;13692;47.480;19.216;2023-09-18T07:55:45;27.10;99.90
25877;DHT22;13692;47.480;19.216;2023-09-18T07:58:12;27.30;99.90
25877;DHT22;13692;47.480;19.216;2023-09-18T08:00:40;27.30;99.90
25877;DHT22;13692;47.480;19.216;2023-09-18T08:03:07;27.60;99.90
25877;DHT22;13692;47.480;19.216;2023-09-18T08:05:34;27.60;99.90
25877;DHT22;13692;47.480;19.216;2023-09-18T08:08:01;27.40;99.90
25877;DHT22;13692;47.480;19.216;2023-09-18T08:10:31;27.70;99.90
25877;DHT22;13692;47.480;19.216;2023-09-18T08:12:59;27.70;99.90
25877;DHT22;13692;47.480;19.216;2023-09-18T08:15:26;28.00;99.90
25877;DHT22;13692;47.480;19.216;2023-09-18T08:17:54;28.30;99.90
25877;DHT22;13692;47.480;19.216;2023-09-18T08:20:21;28.50;99.90
25877;DHT22;13692;47.480;19.216;2023-09-18T08:22:48;29.00;99.90
25877;DHT22;13692;47.480;19.216;2023-09-18T08:25:16;28.90;99.90
25877;DHT22;13692;47.480;19.216;2023-09-18T08:27:43;29.00;99.90
25877;DHT22;13692;47.480;19.216;2023-09-18T08:30:12;28.90;99.90
25877;DHT22;13692;47.480;19.216;2023-09-18T08:32:41;28.80;99.90
25877;DHT22;13692;47.480;19.216;2023-09-18T08:35:09;28.60;99.90
25877;DHT22;13692;47.480;19.216;2023-09-18T08:37:36;28.30;99.90
25877;DHT22;13692;47.480;19.216;2023-09-18T08:40:03;28.50;99.90
25877;DHT22;13692;47.480;19.216;2023-09-18T08:42:40;28.80;99.90
25877;DHT22;13692;47.480;19.216;2023-09-18T08:45:09;28.90;99.90
25877;DHT22;13692;47.480;19.216;2023-09-18T08:47:39;29.10;99.90
25877;DHT22;13692;47.480;19.216;2023-09-18T08:50:09;29.10;99.90
25877;DHT22;13692;47.480;19.216;2023-09-18T08:52:37;29.30;99.90
25877;DHT22;13692;47.480;19.216;2023-09-18T08:55:06;29.50;99.90
25877;DHT22;13692;47.480;19.216;2023-09-18T08:57:36;29.30;99.90
25877;DHT22;13692;47.480;19.216;2023-09-18T09:00:05;29.00;99.90
25877;DHT22;13692;47.480;19.216;2023-09-18T09:02:34;29.20;99.90
25877;DHT22;13692;47.480;19.216;2023-09-18T09:05:02;29.60;99.90
25877;DHT22;13692;47.480;19.216;2023-09-18T09:07:29;29.50;99.90
25877;DHT22;13692;47.480;19.216;2023-09-18T09:09:58;29.40;99.90
25877;DHT22;13692;47.480;19.216;2023-09-18T09:15:17;29.20;99.90
25877;DHT22;13692;47.480;19.216;2023-09-18T09:17:44;29.00;99.90
25877;DHT22;13692;47.480;19.216;2023-09-18T09:20:14;29.00;99.90
25877;DHT22;13692;47.480;19.216;2023-09-18T09:22:42;29.30;99.90
25877;DHT22;13692;47.480;19.216;2023-09-18T09:27:48;29.40;99.90
25877;DHT22;13692;47.480;19.216;2023-09-18T09:30:20;29.80;99.30
25877;DHT22;13692;47.480;19.216;2023-09-18T09:32:49;29.70;99.20
25877;DHT22;13692;47.480;19.216;2023-09-18T09:35:28;29.70;99.30
25877;DHT22;13692;47.480;19.216;2023-09-18T09:38:01;29.50;99.30
25877;DHT22;13692;47.480;19.216;2023-09-18T09:40:30;29.40;99.50
25877;DHT22;13692;47.480;19.216;2023-09-18T09:42:58;29.60;99.30
25877;DHT22;13692;47.480;19.216;2023-09-18T09:45:29;29.40;99.30
25877;DHT22;13692;47.480;19.216;2023-09-18T09:47:57;29.30;99.90
25877;DHT22;13692;47.480;19.216;2023-09-18T09:50:25;29.10;99.90
25877;DHT22;13692;47.480;19.216;2023-09-18T09:52:54;28.90;99.90
25877;DHT22;13692;47.480;19.216;2023-09-18T09:55:40;28.90;99.90
25877;DHT22;13692;47.480;19.216;2023-09-18T09:58:08;29.10;99.90
25877;DHT22;13692;47.480;19.216;2023-09-18T10:00:45;29.20;99.90
25877;DHT22;13692;47.480;19.216;2023-09-18T10:03:14;28.90;99.90
25877;DHT22;13692;47.480;19.216;2023-09-18T10:05:47;28.60;99.90
25877;DHT22;13692;47.480;19.216;2023-09-18T10:08:23;28.50;99.90
25877;DHT22;13692;47.480;19.216;2023-09-18T10:10:54;28.30;99.90
25877;DHT22;13692;47.480;19.216;2023-09-18T10:13:32;28.20;99.90
25877;DHT22;13692;47.480;19.216;2023-09-18T10:16:04;28.30;99.90
25877;DHT22;13692;47.480;19.216;2023-09-18T10:19:08;28.20;99.90
25877;DHT22;13692;47.480;19.216;2023-09-18T10:21:43;28.20;99.90
25877;DHT22;13692;47.480;19.216;2023-09-18T10:24:23;28.10;99.90
25877;DHT22;13692;47.480;19.216;2023-09-18T10:26:55;28.20;99.90
25877;DHT22;13692;47.480;19.216;2023-09-18T10:29:23;28.10;99.90
25877;DHT22;13692;47.480;19.216;2023-09-18T10:31:52;28.10;99.90
25877;DHT22;13692;47.480;19.216;2023-09-18T10:34:22;28.10;99.90
25877;DHT22;13692;47.480;19.216;2023-09-18T10:36:53;27.90;99.90
25877;DHT22;13692;47.480;19.216;2023-09-18T10:39:21;27.90;99.90
25877;DHT22;13692;47.480;19.216;2023-09-18T10:41:55;27.90;99.90
25877;DHT22;13692;47.480;19.216;2023-09-18T10:44:23;28.10;99.90
25877;DHT22;13692;47.480;19.216;2023-09-18T10:46:52;28.00;99.90
25877;DHT22;13692;47.480;19.216;2023-09-18T10:49:20;28.10;99.90
25877;DHT22;13692;47.480;19.216;2023-09-18T10:51:47;27.80;99.90
25877;DHT22;13692;47.480;19.216;2023-09-18T10:54:20;27.80;99.90
25877;DHT22;13692;47.480;19.216;2023-09-18T10:56:48;27.90;99.90
25877;DHT22;13692;47.480;19.216;2023-09-18T10:59:15;27.80;99.90
25877;DHT22;13692;47.480;19.216;2023-09-18T11:01:46;27.80;99.90
25877;DHT22;13692;47.480;19.216;2023-09-18T11:04:19;27.70;99.90
25877;DHT22;13692;47.480;19.216;2023-09-18T11:07:05;27.70;99.90
25877;DHT22;13692;47.480;19.216;2023-09-18T11:09:41;27.70;99.90
25877;DHT22;13692;47.480;19.216;2023-09-18T11:12:10;27.70;99.90
25877;DHT22;13692;47.480;19.216;2023-09-18T11:14:41;27.60;99.90
25877;DHT22;13692;47.480;19.216;2023-09-18T11:20:17;27.40;99.90
25877;DHT22;13692;47.480;19.216;2023-09-18T11:25:41;27.50;99.90
25877;DHT22;13692;47.480;19.216;2023-09-18T11:28:16;27.50;99.90
25877;DHT22;13692;47.480;19.216;2023-09-18T11:30:55;27.60;99.90
25877;DHT22;13692;47.480;19.216;2023-09-18T11:33:40;27.50;99.90
25877;DHT22;13692;47.480;19.216;2023-09-18T11:36:28;27.60;99.90
25877;DHT22;13692;47.480;19.216;2023-09-18T11:38:59;27.60;99.90
25877;DHT22;13692;47.480;19.216;2023-09-18T11:41:33;27.60;99.90
25877;DHT22;13692;47.480;19.216;2023-09-18T11:46:50;27.70;99.90
25877;DHT22;13692;47.480;19.216;2023-09-18T11:49:22;27.60;99.90
25877;DHT22;13692;47.480;19.216;2023-09-18T11:51:50;27.50;99.90
25877;DHT22;13692;47.480;19.216;2023-09-18T11:54:18;27.40;99.90
25877;DHT22;13692;47.480;19.216;2023-09-18T11:56:45;27.40;99.90
25877;DHT22;13692;47.480;19.216;2023-09-18T11:59:12;27.30;99.90
25877;DHT22;13692;47.480;19.216;2023-09-18T12:01:39;27.40;99.90
25877;DHT22;13692;47.480;19.216;2023-09-18T12:04:07;27.40;99.90
25877;DHT22;13692;47.480;19.216;2023-09-18T12:06:36;27.50;99.90
25877;DHT22;13692;47.480;19.216;2023-09-18T12:09:04;27.50;99.90
25877;DHT22;13692;47.480;19.216;2023-09-18T12:11:32;27.50;99.90
25877;DHT22;13692;47.480;19.216;2023-09-18T12:14:04;27.50;99.90
25877;DHT22;13692;47.480;19.216;2023-09-18T12:16:38;27.50;99.90
25877;DHT22;13692;47.480;19.216;2023-09-18T12:19:08;27.50;99.90
25877;DHT22;13692;47.480;19.216;2023-09-18T12:21:42;27.50;99.90
25877;DHT22;13692;47.480;19.216;2023-09-18T12:24:21;27.50;99.90
25877;DHT22;13692;47.480;19.216;2023-09-18T12:26:49;27.60;99.90
25877;DHT22;13692;47.480;19.216;2023-09-18T12:29:17;27.70;99.90
25877;DHT22;13692;47.480;19.216;2023-09-18T12:31:45;27.70;99.90
25877;DHT22;13692;47.480;19.216;2023-09-18T12:34:18;27.80;99.90
25877;DHT22;13692;47.480;19.216;2023-09-18T12:36:48;27.70;99.90
25877;DHT22;13692;47.480;19.216;2023-09-18T12:39:18;27.60;99.90
25877;DHT22;13692;47.480;19.216;2023-09-18T12:41:48;27.60;99.90
25877;DHT22;13692;47.480;19.216;2023-09-18T12:44:15;27.60;99.90
25877;DHT22;13692;47.480;19.216;2023-09-18T12:46:44;27.60;99.90
25877;DHT22;13692;47.480;19.216;2023-09-18T12:49:22;27.70;99.90
25877;DHT22;13692;47.480;19.216;2023-09-18T12:52:02;27.80;99.90
25877;DHT22;13692;47.480;19.216;2023-09-18T12:54:39;27.80;99.90
25877;DHT22;13692;47.480;19.216;2023-09-18T12:57:07;27.80;99.90
25877;DHT22;13692;47.480;19.216;2023-09-18T12:59:36;27.80;99.90
25877;DHT22;13692;47.480;19.216;2023-09-18T13:02:05;27.80;99.90
25877;DHT22;13692;47.480;19.216;2023-09-18T13:04:34;27.80;99.90
25877;DHT22;13692;47.480;19.216;2023-09-18T13:07:10;27.90;99.90
25877;DHT22;13692;47.480;19.216;2023-09-18T13:09:39;27.90;99.90
25877;DHT22;13692;47.480;19.216;2023-09-18T13:12:07;27.80;99.90
25877;DHT22;13692;47.480;19.216;2023-09-18T13:15:03;27.70;99.90
25877;DHT22;13692;47.480;19.216;2023-09-18T13:20:15;27.60;99.90
25877;DHT22;13692;47.480;19.216;2023-09-18T13:22:47;27.60;99.90
25877;DHT22;13692;47.480;19.216;2023-09-18T13:25:20;27.50;99.90
25877;DHT22;13692;47.480;19.216;2023-09-18T13:27:49;27.60;99.90
25877;DHT22;13692;47.480;19.216;2023-09-18T13:30:17;27.70;99.90
25877;DHT22;13692;47.480;19.216;2023-09-18T13:32:44;27.60;99.90
25877;DHT22;13692;47.480;19.216;2023-09-18T13:35:12;27.60;99.90
25877;DHT22;13692;47.480;19.216;2023-09-18T13:37:40;27.70;99.90
25877;DHT22;13692;47.480;19.216;2023-09-18T13:40:08;27.70;99.90
25877;DHT22;13692;47.480;19.216;2023-09-18T13:42:38;27.70;99.90
25877;DHT22;13692;47.480;19.216;2023-09-18T13:45:06;27.80;99.90
25877;DHT22;13692;47.480;19.216;2023-09-18T13:47:35;27.80;99.90
25877;DHT22;13692;47.480;19.216;2023-09-18T13:50:05;27.80;99.90
25877;DHT22;13692;47.480;19.216;2023-09-18T13:52:34;27.80;99.70
25877;DHT22;13692;47.480;19.216;2023-09-18T13:55:03;27.70;99.70
25877;DHT22;13692;47.480;19.216;2023-09-18T13:57:32;27.70;99.90
25877;DHT22;13692;47.480;19.216;2023-09-18T14:00:00;27.70;99.90
25877;DHT22;13692;47.480;19.216;2023-09-18T14:02:28;27.80;99.80
25877;DHT22;13692;47.480;19.216;2023-09-18T14:04:55;27.70;99.90
25877;DHT22;13692;47.480;19.216;2023-09-18T14:07:23;27.70;99.90
25877;DHT22;13692;47.480;19.216;2023-09-18T14:09:50;27.60;99.90
25877;DHT22;13692;47.480;19.216;2023-09-18T14:12:17;27.60;99.90
25877;DHT22;13692;47.480;19.216;2023-09-18T14:14:44;27.60;99.90
25877;DHT22;13692;47.480;19.216;2023-09-18T14:17:11;27.60;99.70
25877;DHT22;13692;47.480;19.216;2023-09-18T14:19:38;27.50;99.90
25877;DHT22;13692;47.480;19.216;2023-09-18T14:22:06;27.50;99.90
25877;DHT22;13692;47.480;19.216;2023-09-18T14:24:33;27.50;99.90
25877;DHT22;13692;47.480;19.216;2023-09-18T14:27:04;27.40;99.80
25877;DHT22;13692;47.480;19.216;2023-09-18T14:29:32;27.40;99.80
25877;DHT22;13692;47.480;19.216;2023-09-18T14:32:00;27.40;99.80
25877;DHT22;13692;47.480;19.216;2023-09-18T14:34:27;27.30;99.90
25877;DHT22;13692;47.480;19.216;2023-09-18T14:36:55;27.30;99.90
25877;DHT22;13692;47.480;19.216;2023-09-18T14:39:22;27.30;99.90
25877;DHT22;13692;47.480;19.216;2023-09-18T14:41:49;27.40;99.90
25877;DHT22;13692;47.480;19.216;2023-09-18T14:44:17;27.30;99.90
25877;DHT22;13692;47.480;19.216;2023-09-18T14:46:44;27.30;99.90
25877;DHT22;13692;47.480;19.216;2023-09-18T14:49:11;27.30;99.90
25877;DHT22;13692;47.480;19.216;2023-09-18T14:51:38;27.30;99.90
25877;DHT22;13692;47.480;19.216;2023-09-18T14:54:06;27.30;99.90
25877;DHT22;13692;47.480;19.216;2023-09-18T14:56:35;27.20;99.90
25877;DHT22;13692;47.480;19.216;2023-09-18T14:59:03;27.20;99.90
25877;DHT22;13692;47.480;19.216;2023-09-18T15:01:32;27.20;99.90
25877;DHT22;13692;47.480;19.216;2023-09-18T15:03:59;27.10;99.90
25877;DHT22;13692;47.480;19.216;2023-09-18T15:06:26;27.10;99.90
25877;DHT22;13692;47.480;19.216;2023-09-18T15:08:54;27.10;99.90
25877;DHT22;13692;47.480;19.216;2023-09-18T15:11:21;27.10;99.90
25877;DHT22;13692;47.480;19.216;2023-09-18T15:13:48;27.10;99.90
25877;DHT22;13692;47.480;19.216;2023-09-18T15:16:16;27.10;99.90
25877;DHT22;13692;47.480;19.216;2023-09-18T15:18:43;27.10;99.90
25877;DHT22;13692;47.480;19.216;2023-09-18T15:21:11;27.10;99.90
25877;DHT22;13692;47.480;19.216;2023-09-18T15:23:38;27.10;99.90
25877;DHT22;13692;47.480;19.216;2023-09-18T15:26:06;27.10;99.90
25877;DHT22;13692;47.480;19.216;2023-09-18T15:28:34;27.10;99.90
25877;DHT22;13692;47.480;19.216;2023-09-18T15:31:01;27.10;99.90
25877;DHT22;13692;47.480;19.216;2023-09-18T15:33:29;27.10;99.90
25877;DHT22;13692;47.480;19.216;2023-09-18T15:35:56;27.10;99.90
25877;DHT22;13692;47.480;19.216;2023-09-18T15:38:24;27.10;99.90
25877;DHT22;13692;47.480;19.216;2023-09-18T15:40:53;27.10;99.90
25877;DHT22;13692;47.480;19.216;2023-09-18T15:43:20;27.10;99.90
25877;DHT22;13692;47.480;19.216;2023-09-18T15:45:48;27.10;99.90